Time;durP1;ratioP1;P1;durP2;ratioP2;P2;SDS_P1;SDS_P2;PMS_P1;PMS_P2;Temp;Humidity;BMP_temperature;BMP_pressure;BME280_temperature;BME280_humidity;BME280_pressure;Samples;Min_cycle;Max_cycle;Signal;HPM_P1;HPM_P2
2022/01/22 00:00:34;;;;;;;29.70;10.63;;;;;;;4.59;100.00;102392.75;4970393;28;20061;-80
2022/01/22 00:02:59;;;;;;;25.98;10.27;;;;;;;4.59;100.00;102389.31;4985766;28;20042;-81
2022/01/22 00:05:25;;;;;;;25.88;11.07;;;;;;;4.58;100.00;102398.88;4949594;28;20054;-81
2022/01/22 00:07:51;;;;;;;29.20;9.48;;;;;;;4.52;100.00;102398.28;4971834;28;20070;-79
2022/01/22 00:10:19;;;;;;;27.40;8.45;;;;;;;4.54;100.00;102394.72;4985646;28;20800;-81
2022/01/22 00:15:18;;;;;;;29.00;8.70;;;;;;;4.53;100.00;102402.59;4971377;28;20054;-84
2022/01/22 00:17:44;;;;;;;23.08;8.90;;;;;;;4.59;100.00;102416.13;4957824;28;20653;-82
2022/01/22 00:20:11;;;;;;;31.55;8.20;;;;;;;4.52;100.00;102412.16;4985923;28;20118;-79
2022/01/22 00:22:37;;;;;;;19.13;7.68;;;;;;;4.49;100.00;102400.09;4967587;28;20031;-78
2022/01/22 00:25:08;;;;;;;23.80;7.88;;;;;;;4.42;100.00;102398.69;4939211;28;20054;-78
2022/01/22 00:27:38;;;;;;;25.05;8.82;;;;;;;4.43;100.00;102404.75;4956710;28;20500;-80
2022/01/22 00:30:07;;;;;;;22.58;8.32;;;;;;;4.40;100.00;102405.69;4967006;28;20035;-78
2022/01/22 00:32:35;;;;;;;24.58;8.30;;;;;;;4.48;100.00;102403.63;4939644;28;20558;-79
2022/01/22 00:35:01;;;;;;;20.13;7.72;;;;;;;4.48;100.00;102410.56;4953475;28;20030;-78
2022/01/22 00:37:26;;;;;;;22.63;8.25;;;;;;;4.45;100.00;102411.53;4973581;28;20030;-78
2022/01/22 00:39:52;;;;;;;20.10;7.55;;;;;;;4.45;100.00;102415.91;4940073;28;20127;-78
2022/01/22 00:42:20;;;;;;;21.80;7.80;;;;;;;4.39;100.00;102406.63;4968244;28;20041;-78
2022/01/22 00:44:46;;;;;;;25.95;10.32;;;;;;;4.41;100.00;102409.16;4970152;28;20105;-78
2022/01/22 00:47:12;;;;;;;20.48;7.13;;;;;;;4.41;100.00;102415.19;4949183;28;20047;-78
2022/01/22 00:49:38;;;;;;;22.42;7.10;;;;;;;4.36;100.00;102414.53;4954975;28;20454;-78
2022/01/22 00:52:05;;;;;;;26.17;8.63;;;;;;;4.32;100.00;102410.38;4957231;28;20047;-78
2022/01/22 00:54:31;;;;;;;22.65;7.70;;;;;;;4.34;100.00;102407.72;4956700;28;20053;-78
2022/01/22 00:56:58;;;;;;;23.65;7.03;;;;;;;4.41;100.00;102411.75;4982708;28;20089;-77
2022/01/22 00:59:23;;;;;;;21.65;6.35;;;;;;;4.36;100.00;102417.13;4970354;28;20561;-78
2022/01/22 01:01:50;;;;;;;20.50;7.95;;;;;;;4.45;100.00;102421.94;4972912;28;20053;-78
2022/01/22 01:04:16;;;;;;;26.67;11.85;;;;;;;4.47;100.00;102414.09;4971078;28;20042;-77
2022/01/22 01:06:42;;;;;;;12.77;5.35;;;;;;;4.44;100.00;102420.25;4971843;28;20398;-78
2022/01/22 01:09:10;;;;;;;17.95;7.18;;;;;;;4.40;100.00;102421.28;4958314;28;20086;-78
2022/01/22 01:11:43;;;;;;;16.40;6.05;;;;;;;4.41;100.00;102423.00;4955646;28;20125;-78
2022/01/22 01:14:14;;;;;;;16.67;5.10;;;;;;;4.38;100.00;102417.06;4958325;28;20046;-78
2022/01/22 01:33:13;;;;;;;11.68;4.60;;;;;;;4.36;100.00;102440.50;4971370;28;20034;-78
2022/01/22 01:35:40;;;;;;;12.15;4.70;;;;;;;4.29;100.00;102436.47;4948015;28;20031;-79
2022/01/22 01:38:07;;;;;;;15.65;6.47;;;;;;;4.29;100.00;102439.94;4987228;28;20058;-78
2022/01/22 01:40:37;;;;;;;12.07;4.47;;;;;;;4.25;100.00;102440.97;4959477;28;20139;-79
2022/01/22 01:43:11;;;;;;;10.30;4.35;;;;;;;4.22;100.00;102441.09;4941836;28;20163;-79
2022/01/22 01:45:37;;;;;;;10.80;4.32;;;;;;;4.16;100.00;102430.94;4954081;28;20073;-79
2022/01/22 01:48:09;;;;;;;11.48;3.88;;;;;;;4.09;100.00;102438.16;4984745;28;20054;-79
2022/01/22 01:50:37;;;;;;;30.10;12.80;;;;;;;4.09;100.00;102442.53;4954367;28;20053;-80
2022/01/22 01:53:43;;;;;;;9.30;4.47;;;;;;;4.04;100.00;102447.88;4966526;28;20031;-77
2022/01/22 01:56:03;;;;;;;12.80;4.55;;;;;;;4.10;100.00;102449.38;4971692;28;20045;-79
2022/01/22 01:58:33;;;;;;;14.35;5.20;;;;;;;3.99;100.00;102451.56;4973726;28;20042;-80
2022/01/22 02:01:03;;;;;;;17.42;5.05;;;;;;;4.03;100.00;102451.41;4956410;28;20490;-78
2022/01/22 02:03:30;;;;;;;13.20;4.68;;;;;;;3.99;100.00;102461.97;4979334;28;20038;-79
2022/01/22 02:06:05;;;;;;;20.80;5.60;;;;;;;3.98;100.00;102473.28;4973175;28;20034;-80
2022/01/22 02:08:33;;;;;;;13.80;5.50;;;;;;;3.94;100.00;102463.88;4975081;28;20054;-79
2022/01/22 02:11:04;;;;;;;21.65;6.10;;;;;;;4.01;100.00;102466.22;4972742;28;20090;-79
2022/01/22 02:25:13;;;;;;;25.35;7.32;;;;;;;4.32;100.00;102495.28;4955617;28;20747;-81
2022/01/22 02:27:39;;;;;;;20.33;6.90;;;;;;;4.22;100.00;102489.59;4954116;28;20491;-79
2022/01/22 02:30:07;;;;;;;26.33;7.40;;;;;;;4.15;100.00;102485.56;4956885;28;20039;-79
2022/01/22 02:35:34;;;;;;;29.67;8.00;;;;;;;4.17;100.00;102502.78;4968582;28;20502;-79
2022/01/22 02:38:09;;;;;;;34.00;7.18;;;;;;;4.22;100.00;102510.38;4968823;28;20039;-80
2022/01/22 02:40:42;;;;;;;23.13;7.00;;;;;;;4.19;100.00;102498.34;4954594;28;20043;-80
2022/01/22 02:43:10;;;;;;;;;;;;;;;4.19;100.00;102513.09;4958539;28;20046;-78
2022/01/22 02:45:39;;;;;;;26.35;7.20;;;;;;;4.14;100.00;102508.09;4961532;28;19998;-79
2022/01/22 02:48:05;;;;;;;22.90;7.07;;;;;;;4.17;100.00;102520.97;4955199;28;20063;-79
2022/01/22 02:50:31;;;;;;;22.10;6.78;;;;;;;4.24;100.00;102529.38;4950710;28;20043;-78
2022/01/22 02:53:01;;;;;;;26.17;6.68;;;;;;;4.15;100.00;102519.34;4969585;28;20320;-78
2022/01/22 02:55:27;;;;;;;21.17;6.53;;;;;;;4.16;100.00;102541.78;4959635;28;20074;-80
2022/01/22 02:57:54;;;;;;;22.75;6.95;;;;;;;4.08;100.00;102519.56;4959981;28;20580;-79
2022/01/22 03:00:22;;;;;;;24.55;7.38;;;;;;;4.17;100.00;102520.97;4955196;28;20130;-79
2022/01/22 03:02:49;;;;;;;25.27;7.03;;;;;;;4.10;100.00;102509.94;4957622;28;20086;-79
2022/01/22 03:05:16;;;;;;;26.80;7.70;;;;;;;4.14;100.00;102523.66;4977250;28;20031;-78
2022/01/22 03:07:44;;;;;;;26.10;7.90;;;;;;;4.19;100.00;102521.75;4972691;28;20042;-80
2022/01/22 03:10:13;;;;;;;16.67;7.00;;;;;;;4.16;100.00;102531.41;4956087;28;20502;-79
2022/01/22 03:18:13;;;;;;;26.60;9.13;;;;;;;4.12;100.00;102537.63;4958130;28;20085;-79
2022/01/22 03:21:05;;;;;;;22.55;8.13;;;;;;;4.20;100.00;102541.63;4974217;28;20034;-80
2022/01/22 03:31:26;;;;;;;28.75;9.05;;;;;;;4.06;100.00;102533.53;4976359;28;20153;-81
2022/01/22 03:33:52;;;;;;;27.45;9.60;;;;;;;4.12;100.00;102543.66;4954365;28;20141;-80
2022/01/22 03:36:19;;;;;;;23.63;9.43;;;;;;;4.05;100.00;102540.47;4954355;28;20034;-79
2022/01/22 03:38:45;;;;;;;22.70;10.55;;;;;;;4.08;100.00;102544.69;4969342;28;20039;-79
2022/01/22 03:41:11;;;;;;;22.35;10.20;;;;;;;4.09;100.00;102526.47;4955018;28;20059;-79
2022/01/22 03:43:38;;;;;;;31.23;9.93;;;;;;;4.11;100.00;102534.19;4946880;28;20507;-79
2022/01/22 03:46:05;;;;;;;32.55;10.57;;;;;;;4.10;100.00;102546.31;4953446;28;20134;-79
2022/01/22 03:48:30;;;;;;;22.95;10.73;;;;;;;4.03;100.00;102537.09;4955172;28;20616;-80
2022/01/22 03:50:56;;;;;;;26.30;11.23;;;;;;;4.11;100.00;102544.59;4965750;28;20066;-79
2022/01/22 03:53:21;;;;;;;26.42;11.18;;;;;;;4.04;100.00;102538.78;4970710;28;20464;-78
2022/01/22 03:56:09;;;;;;;23.65;11.60;;;;;;;4.10;100.00;102543.72;4970630;28;20089;-79
2022/01/22 03:58:45;;;;;;;32.13;11.40;;;;;;;4.10;100.00;102545.47;4966562;28;20058;-79
2022/01/22 04:04:20;;;;;;;30.92;11.27;;;;;;;4.07;100.00;102558.59;4982131;28;20047;-79
2022/01/22 04:09:26;;;;;;;28.42;12.50;;;;;;;4.03;100.00;102572.59;4974328;28;20045;-78
2022/01/22 04:11:54;;;;;;;34.53;13.27;;;;;;;4.03;100.00;102570.84;4956076;28;20039;-78
2022/01/22 04:14:25;;;;;;;35.72;13.13;;;;;;;4.02;100.00;102563.13;4988126;28;20034;-79
2022/01/22 04:25:07;;;;;;;40.67;13.13;;;;;;;4.13;100.00;102578.28;4954971;28;20105;-79
2022/01/22 04:27:33;;;;;;;33.05;12.50;;;;;;;4.09;100.00;102578.41;4956318;28;20030;-80
2022/01/22 04:30:00;;;;;;;37.58;12.27;;;;;;;4.05;100.00;102570.78;4953267;28;20097;-80
2022/01/22 04:32:28;;;;;;;44.97;13.57;;;;;;;4.04;100.00;102579.47;4957493;28;20125;-80
2022/01/22 04:34:55;;;;;;;39.05;13.00;;;;;;;4.13;100.00;102576.53;4960275;28;20057;-80
2022/01/22 04:37:24;;;;;;;39.30;12.52;;;;;;;4.10;100.00;102587.88;4974099;28;20127;-79
2022/01/22 04:39:50;;;;;;;45.80;12.77;;;;;;;4.08;100.00;102583.66;4962766;28;20673;-80
2022/01/22 04:42:17;;;;;;;47.17;13.20;;;;;;;4.12;100.00;102582.63;4958086;28;20077;-79
2022/01/22 04:45:15;;;;;;;44.15;11.55;;;;;;;4.08;100.00;102589.69;4957514;28;20046;-80
2022/01/22 04:47:47;;;;;;;37.95;11.85;;;;;;;4.15;100.00;102598.09;4973171;28;20541;-79
2022/01/22 04:55:42;;;;;;;31.80;10.73;;;;;;;4.17;100.00;102592.84;4963098;28;20070;-78
2022/01/22 04:58:09;;;;;;;31.92;11.68;;;;;;;4.16;100.00;102589.38;4962791;28;20046;-79
2022/01/22 05:00:38;;;;;;;32.28;10.43;;;;;;;4.13;100.00;102583.47;4957839;28;20241;-78
2022/01/22 05:03:06;;;;;;;36.05;10.98;;;;;;;4.08;100.00;102587.09;4973226;28;20045;-79
2022/01/22 05:05:57;;;;;;;34.58;10.93;;;;;;;4.08;100.00;102591.44;4945317;28;20034;-79
2022/01/22 05:08:26;;;;;;;35.05;11.55;;;;;;;4.06;100.00;102588.06;4956989;28;20503;-78
2022/01/22 05:11:18;;;;;;;31.38;10.98;;;;;;;4.08;100.00;102586.25;4970676;28;20073;-79
2022/01/22 05:13:46;;;;;;;30.40;9.52;;;;;;;3.97;100.00;102578.84;4956191;28;20045;-79
2022/01/22 05:16:12;;;;;;;35.97;10.60;;;;;;;4.00;100.00;102589.13;4969283;28;20035;-79
2022/01/22 05:18:48;;;;;;;38.15;9.85;;;;;;;4.00;100.00;102591.72;4945443;28;20117;-78
2022/01/22 05:21:16;;;;;;;34.05;10.80;;;;;;;3.97;100.00;102584.06;4959448;28;20063;-77
2022/01/22 05:23:44;;;;;;;25.23;9.32;;;;;;;4.05;100.00;102589.81;4964145;28;20089;-79
2022/01/22 05:26:27;;;;;;;38.60;10.43;;;;;;;4.17;100.00;102595.44;4950657;28;20863;-78
2022/01/22 05:29:18;;;;;;;32.03;10.32;;;;;;;4.15;100.00;102590.31;4975541;28;20041;-79
2022/01/22 05:37:40;;;;;;;49.22;13.38;;;;;;;4.12;100.00;102590.41;4985133;28;20035;-77
2022/01/22 05:40:07;;;;;;;36.97;14.80;;;;;;;4.16;100.00;102591.13;4973574;28;20038;-80
2022/01/22 05:42:33;;;;;;;40.83;14.30;;;;;;;4.18;100.00;102597.13;4975211;28;20041;-79
2022/01/22 05:44:58;;;;;;;53.85;16.38;;;;;;;4.11;100.00;102593.94;4973212;28;20047;-78
2022/01/22 05:47:27;;;;;;;56.40;17.23;;;;;;;4.28;100.00;102595.88;4974581;28;20101;-79
2022/01/22 05:49:55;;;;;;;52.83;17.52;;;;;;;4.21;100.00;102584.03;4977916;28;20569;-80
2022/01/22 05:52:38;;;;;;;60.35;17.15;;;;;;;4.26;100.00;102606.31;4976647;28;20038;-79
2022/01/22 05:55:26;;;;;;;57.03;16.90;;;;;;;4.26;100.00;102601.13;4956758;28;20406;-79
2022/01/22 06:00:41;;;;;;;50.03;16.67;;;;;;;4.21;100.00;102618.63;4956689;28;20039;-80
2022/01/22 06:03:16;;;;;;;58.20;15.98;;;;;;;4.19;100.00;102625.63;4955551;28;20042;-80
2022/01/22 06:05:42;;;;;;;53.33;16.35;;;;;;;4.16;100.00;102625.75;4947800;28;20043;-78
2022/01/22 06:08:14;;;;;;;59.25;18.80;;;;;;;4.23;100.00;102628.97;4956889;28;20039;-81
2022/01/22 06:10:40;;;;;;;49.63;16.08;;;;;;;4.21;100.00;102629.00;4957215;28;20121;-80
2022/01/22 06:13:18;;;;;;;59.60;17.48;;;;;;;4.15;100.00;102628.41;4966962;28;20039;-80
2022/01/22 06:15:45;;;;;;;61.00;18.38;;;;;;;4.23;100.00;102626.38;4960495;28;20039;-80
2022/01/22 06:18:46;;;;;;;60.08;18.73;;;;;;;4.31;100.00;102636.47;4953871;28;20302;-80
2022/01/22 06:21:12;;;;;;;58.95;19.08;;;;;;;4.31;100.00;102642.50;4964309;28;20101;-82
2022/01/22 06:23:40;;;;;;;60.30;17.52;;;;;;;4.20;100.00;102635.13;4943719;28;20538;-80
2022/01/22 06:26:07;;;;;;;55.92;17.02;;;;;;;4.18;100.00;102630.88;4934715;28;20094;-79
2022/01/22 06:28:33;;;;;;;63.38;17.17;;;;;;;4.20;100.00;102636.88;4959870;28;20045;-80
2022/01/22 06:31:00;;;;;;;60.45;16.02;;;;;;;4.13;100.00;102638.03;4970540;28;20050;-80
2022/01/22 06:33:27;;;;;;;60.10;17.00;;;;;;;4.08;100.00;102633.00;4977530;28;20045;-80
2022/01/22 06:35:53;;;;;;;58.55;16.63;;;;;;;4.10;100.00;102651.97;4941131;28;20031;-78
2022/01/22 06:38:19;;;;;;;58.47;17.77;;;;;;;4.07;100.00;102646.91;4974087;28;20053;-79
2022/01/22 06:44:09;;;;;;;65.53;17.65;;;;;;;4.10;100.00;102655.38;4983032;28;20082;-78
2022/01/22 06:46:52;;;;;;;61.83;18.33;;;;;;;4.23;100.00;102663.56;4954592;28;20026;-79
2022/01/22 06:49:46;;;;;;;69.57;18.58;;;;;;;4.13;100.00;102662.25;4987078;28;20139;-80
2022/01/22 06:52:35;;;;;;;71.07;18.80;;;;;;;4.22;100.00;102677.47;4955665;28;20130;-80
2022/01/22 06:55:06;;;;;;;80.03;20.30;;;;;;;4.23;100.00;102668.75;4954634;28;20039;-79
2022/01/22 06:57:32;;;;;;;78.07;20.05;;;;;;;4.15;100.00;102676.00;4959905;28;20518;-78
2022/01/22 06:59:58;;;;;;;71.22;18.70;;;;;;;4.15;100.00;102680.38;4957676;28;20042;-79
2022/01/22 07:02:24;;;;;;;71.57;19.73;;;;;;;4.10;100.00;102683.97;4952876;28;20331;-81
2022/01/22 07:04:51;;;;;;;71.63;18.00;;;;;;;4.10;100.00;102664.94;4955692;28;20109;-78
2022/01/22 07:07:36;;;;;;;93.82;21.20;;;;;;;4.15;100.00;102675.19;4986083;28;20039;-79
2022/01/22 07:10:03;;;;;;;82.65;18.65;;;;;;;4.08;100.00;102661.56;4971804;28;20043;-80
2022/01/22 07:12:29;;;;;;;68.57;17.92;;;;;;;4.08;100.00;102670.19;4952806;28;20108;-79
2022/01/22 07:14:55;;;;;;;78.50;19.23;;;;;;;4.10;100.00;102685.72;4958960;28;20109;-79
2022/01/22 07:17:20;;;;;;;65.00;18.67;;;;;;;4.04;100.00;102672.97;4956891;28;20050;-78
2022/01/22 07:19:53;;;;;;;63.88;19.58;;;;;;;4.10;100.00;102678.75;4974805;28;20035;-79
2022/01/22 07:23:15;;;;;;;67.45;19.70;;;;;;;4.05;100.00;102679.84;4973467;28;20461;-79
2022/01/22 07:25:28;;;;;;;65.32;19.70;;;;;;;4.13;100.00;102683.03;4968969;28;20046;-79
2022/01/22 07:27:59;;;;;;;73.80;19.48;;;;;;;4.11;100.00;102684.81;4955832;28;20034;-80
2022/01/22 07:30:27;;;;;;;71.63;18.52;;;;;;;4.15;100.00;102695.94;4970889;28;20512;-80
2022/01/22 07:32:52;;;;;;;61.55;17.38;;;;;;;4.11;100.00;102690.03;4956010;28;20041;-79
2022/01/22 07:35:19;;;;;;;69.95;16.95;;;;;;;4.09;100.00;102684.88;4957265;28;20051;-79
2022/01/22 07:37:54;;;;;;;55.53;16.38;;;;;;;4.15;100.00;102688.16;4954475;28;20034;-78
2022/01/22 07:40:21;;;;;;;51.95;16.27;;;;;;;4.14;100.00;102687.28;4955647;28;20046;-79
2022/01/22 07:42:57;;;;;;;55.80;17.33;;;;;;;4.16;100.00;102684.66;4967212;28;20039;-79
2022/01/22 07:45:41;;;;;;;54.10;15.55;;;;;;;4.20;100.00;102692.28;4969508;28;20101;-79
2022/01/22 07:48:13;;;;;;;;;;;;;;;4.29;100.00;102696.25;4956737;28;20125;-79
2022/01/22 07:50:58;;;;;;;51.97;15.55;;;;;;;4.24;100.00;102700.81;4985133;28;19972;-79
2022/01/22 07:53:24;;;;;;;63.45;15.98;;;;;;;4.22;100.00;102700.00;4970863;28;20034;-79
2022/01/22 07:55:52;;;;;;;58.38;16.83;;;;;;;4.17;100.00;102702.78;4940827;28;20035;-79
2022/01/22 07:58:17;;;;;;;70.50;17.15;;;;;;;4.14;100.00;102702.88;4984514;28;20059;-79
2022/01/22 08:00:43;;;;;;;70.03;17.70;;;;;;;4.12;100.00;102704.69;4956061;28;20529;-79
2022/01/22 08:03:09;;;;;;;63.85;16.90;;;;;;;4.15;100.00;102707.19;4956708;28;20121;-80
2022/01/22 08:05:53;;;;;;;66.97;17.35;;;;;;;4.19;100.00;102700.97;4973695;28;20511;-79
2022/01/22 08:08:52;;;;;;;60.10;17.92;;;;;;;4.25;100.00;102702.47;4980233;28;20034;-79
2022/01/22 08:11:53;;;;;;;77.65;16.60;;;;;;;4.26;100.00;102710.22;4897034;29;20036;-77
2022/01/22 08:14:19;;;;;;;62.22;16.08;;;;;;;4.25;100.00;102716.31;4944358;28;20046;-79
2022/01/22 08:16:47;;;;;;;57.17;15.57;;;;;;;4.36;100.00;102713.31;4956454;28;20035;-79
2022/01/22 08:19:14;;;;;;;67.93;14.15;;;;;;;4.32;100.00;102718.69;4956865;28;20056;-80
2022/01/22 08:21:41;;;;;;;48.92;12.57;;;;;;;4.27;100.00;102717.09;4955001;28;20039;-80
2022/01/22 08:24:26;;;;;;;51.38;11.07;;;;;;;4.27;100.00;102724.06;4958565;28;20506;-78
2022/01/22 08:27:22;;;;;;;38.55;10.18;;;;;;;4.32;100.00;102729.09;4971876;28;20093;-79
2022/01/22 08:29:48;;;;;;;36.38;10.43;;;;;;;4.34;100.00;102724.69;4976544;28;20118;-79
2022/01/22 08:37:24;;;;;;;45.25;9.98;;;;;;;4.32;100.00;102727.34;4972975;28;20043;-80
2022/01/22 08:39:50;;;;;;;29.13;9.55;;;;;;;4.35;100.00;102709.03;4969933;28;20085;-80
2022/01/22 08:42:16;;;;;;;34.45;8.07;;;;;;;4.41;100.00;102726.16;4955457;28;20378;-79
2022/01/22 08:44:42;;;;;;;28.02;9.35;;;;;;;4.45;100.00;102725.97;4953855;28;20042;-80
2022/01/22 08:47:14;;;;;;;32.72;8.88;;;;;;;4.43;100.00;102717.38;4974131;28;20038;-79
2022/01/22 08:49:40;;;;;;;27.23;9.45;;;;;;;4.52;100.00;102729.19;4958840;28;20057;-80
2022/01/22 08:52:14;;;;;;;28.35;9.65;;;;;;;4.54;100.00;102731.72;4961530;28;20085;-80
2022/01/22 08:54:42;;;;;;;27.35;9.20;;;;;;;4.52;100.00;102724.00;4963904;28;20027;-80
2022/01/22 08:57:10;;;;;;;26.73;9.02;;;;;;;4.54;100.00;102726.50;4956059;28;20033;-80
2022/01/22 08:59:47;;;;;;;30.13;8.85;;;;;;;4.63;100.00;102740.03;4957978;28;20655;-79
2022/01/22 09:02:15;;;;;;;30.95;9.15;;;;;;;4.55;100.00;102739.44;4953714;28;20090;-78
2022/01/22 09:04:55;;;;;;;25.52;9.63;;;;;;;4.58;100.00;102747.16;4974327;28;20035;-78
2022/01/22 09:07:41;;;;;;;26.92;11.02;;;;;;;4.56;100.00;102745.50;4957447;28;20053;-81
2022/01/22 09:10:26;;;;;;;26.38;10.18;;;;;;;4.65;100.00;102748.63;4955524;28;20042;-79
2022/01/22 09:13:10;;;;;;;32.83;10.45;;;;;;;4.61;100.00;102746.16;4973360;28;20042;-80
2022/01/22 09:15:49;;;;;;;34.72;11.27;;;;;;;4.61;100.00;102756.56;4972055;28;20038;-79
2022/01/22 09:18:16;;;;;;;31.08;11.18;;;;;;;4.66;100.00;102744.25;4971589;28;20067;-79
2022/01/22 09:20:55;;;;;;;29.45;11.10;;;;;;;4.77;100.00;102762.03;4985281;28;20042;-78
2022/01/22 09:23:21;;;;;;;26.98;10.77;;;;;;;4.70;100.00;102764.03;4971251;28;20542;-78
2022/01/22 09:25:49;;;;;;;27.13;9.40;;;;;;;4.68;100.00;102763.22;4971285;28;20481;-79
2022/01/22 09:28:15;;;;;;;24.88;9.25;;;;;;;4.68;100.00;102758.03;4959016;28;20054;-79
2022/01/22 09:30:47;;;;;;;28.88;9.70;;;;;;;4.68;100.00;102761.47;4961130;28;20118;-79
2022/01/22 09:33:14;;;;;;;31.23;10.38;;;;;;;4.83;100.00;102764.41;4989686;28;20094;-79
2022/01/22 09:35:51;;;;;;;37.28;10.60;;;;;;;4.73;100.00;102765.66;4951402;28;20042;-78
2022/01/22 09:38:36;;;;;;;26.58;9.52;;;;;;;4.74;100.00;102783.78;4974862;28;20464;-80
2022/01/22 09:41:17;;;;;;;38.60;10.77;;;;;;;4.72;100.00;102771.75;4989775;28;20034;-80
2022/01/22 09:44:02;;;;;;;34.65;11.88;;;;;;;4.76;100.00;102781.97;4988289;28;20053;-79
2022/01/22 09:46:29;;;;;;;37.80;11.45;;;;;;;4.81;100.00;102787.03;4970643;28;20066;-79
2022/01/22 09:49:13;;;;;;;38.60;11.60;;;;;;;4.92;100.00;102782.25;4976564;28;20050;-79
2022/01/22 09:51:39;;;;;;;27.63;11.93;;;;;;;4.86;100.00;102798.09;4948730;29;20039;-81
2022/01/22 09:54:25;;;;;;;28.55;10.82;;;;;;;4.85;100.00;102794.63;4944116;28;20047;-79
2022/01/22 09:57:13;;;;;;;35.92;11.10;;;;;;;4.95;100.00;102791.69;4953903;28;20054;-80
2022/01/22 09:59:45;;;;;;;33.35;10.98;;;;;;;5.02;100.00;102798.34;4973455;28;20046;-80
2022/01/22 10:02:30;;;;;;;39.72;11.75;;;;;;;4.99;100.00;102783.72;4959757;28;20042;-80
2022/01/22 10:04:56;;;;;;;35.60;12.70;;;;;;;5.04;100.00;102794.75;4956916;28;20442;-78
2022/01/22 10:07:43;;;;;;;35.83;12.13;;;;;;;5.11;100.00;102797.97;4970899;28;20035;-80
2022/01/22 10:10:38;;;;;;;27.85;10.15;;;;;;;5.09;100.00;102798.97;4960840;28;20035;-79
2022/01/22 10:13:53;;;;;;;32.00;11.32;;;;;;;5.08;100.00;102798.09;4960453;28;21758;-79
2022/01/22 10:16:23;;;;;;;28.75;10.93;;;;;;;5.13;100.00;102793.56;4937472;28;20047;-79
2022/01/22 10:19:15;;;;;;;35.83;10.90;;;;;;;5.11;100.00;102799.75;4941111;28;20077;-78
2022/01/22 10:22:03;;;;;;;29.38;10.30;;;;;;;5.16;100.00;102792.56;4969540;28;20654;-78
2022/01/22 10:24:40;;;;;;;28.08;10.40;;;;;;;5.24;100.00;102798.34;4961161;28;20513;-80
2022/01/22 10:27:38;;;;;;;31.58;11.15;;;;;;;5.26;100.00;102792.16;4973358;28;20055;-80
2022/01/22 10:30:10;;;;;;;31.95;10.63;;;;;;;5.39;100.00;102791.69;4956980;28;20837;-80
2022/01/22 10:33:04;;;;;;;31.38;10.80;;;;;;;5.32;100.00;102793.66;4975112;28;20037;-79
2022/01/22 10:35:49;;;;;;;26.90;9.65;;;;;;;5.25;100.00;102793.09;4968931;28;20039;-81
2022/01/22 10:38:43;;;;;;;20.83;9.85;;;;;;;5.26;100.00;102799.97;4970286;28;20443;-79
2022/01/22 10:41:09;;;;;;;22.85;9.40;;;;;;;5.28;100.00;102797.31;4955058;28;20038;-79
2022/01/22 10:43:41;;;;;;;24.63;9.57;;;;;;;5.29;100.00;102793.78;4961264;28;20085;-79
2022/01/22 10:48:53;;;;;;;24.80;9.25;;;;;;;5.29;100.00;102798.16;4985355;28;20585;-81
2022/01/22 10:51:19;;;;;;;21.88;9.18;;;;;;;5.40;100.00;102791.59;4971337;28;20027;-79
2022/01/22 10:53:47;;;;;;;22.17;8.90;;;;;;;5.42;100.00;102805.38;4957428;28;20043;-79
2022/01/22 10:56:17;;;;;;;22.77;9.38;;;;;;;5.36;100.00;102787.41;4957329;28;20586;-81
2022/01/22 10:58:57;;;;;;;18.95;8.60;;;;;;;5.52;100.00;102792.00;4944477;28;20035;-80
2022/01/22 11:01:26;;;;;;;19.30;8.60;;;;;;;5.54;100.00;102798.84;4958737;28;20159;-79
2022/01/22 11:04:04;;;;;;;17.85;9.65;;;;;;;5.47;100.00;102793.03;4945116;28;20038;-79
2022/01/22 11:06:31;;;;;;;22.23;10.65;;;;;;;5.49;100.00;102786.94;4964701;28;20023;-79
2022/01/22 11:08:57;;;;;;;20.73;10.32;;;;;;;5.54;100.00;102798.84;4972488;28;20065;-79
2022/01/22 11:11:24;;;;;;;24.27;10.38;;;;;;;5.55;100.00;102800.53;4979288;28;20490;-79
2022/01/22 11:13:50;;;;;;;22.40;10.35;;;;;;;5.50;100.00;102799.03;4958683;28;20037;-78
2022/01/22 11:16:18;;;;;;;24.88;10.05;;;;;;;5.61;100.00;102813.31;4972977;28;20031;-80
2022/01/22 11:18:51;;;;;;;20.25;9.85;;;;;;;5.54;100.00;102811.00;4958045;28;20039;-79
2022/01/22 11:21:17;;;;;;;23.23;9.52;;;;;;;5.59;100.00;102807.28;4971457;28;20402;-79
2022/01/22 11:23:44;;;;;;;23.15;9.75;;;;;;;5.66;100.00;102805.28;4970789;28;20042;-78
2022/01/22 11:26:10;;;;;;;17.02;8.82;;;;;;;5.67;100.00;102801.78;4956908;28;20035;-79
2022/01/22 11:28:38;;;;;;;20.95;9.05;;;;;;;5.66;100.00;102792.28;4974316;28;20042;-80
2022/01/22 11:31:05;;;;;;;20.30;9.15;;;;;;;5.57;100.00;102798.69;4957411;28;20027;-80
2022/01/22 11:33:32;;;;;;;18.27;8.43;;;;;;;5.53;100.00;102796.31;4972972;28;20042;-80
2022/01/22 11:36:03;;;;;;;14.73;6.72;;;;;;;5.56;100.00;102798.78;4969381;28;20031;-79
2022/01/22 11:38:39;;;;;;;11.43;6.13;;;;;;;5.54;100.00;102791.03;4955989;28;20039;-79
2022/01/22 11:41:08;;;;;;;10.30;5.40;;;;;;;5.63;100.00;102797.59;4955215;28;20063;-79
2022/01/22 11:43:50;;;;;;;8.15;4.50;;;;;;;5.66;100.00;102806.13;4967196;28;20050;-78
2022/01/22 11:46:28;;;;;;;7.10;4.13;;;;;;;5.73;100.00;102809.34;4972796;28;20043;-80
2022/01/22 11:49:33;;;;;;;5.43;3.28;;;;;;;5.66;100.00;102807.91;4961087;28;20078;-80
2022/01/22 11:52:07;;;;;;;5.68;2.95;;;;;;;5.66;100.00;102802.69;4913175;29;20048;-80
2022/01/22 11:54:54;;;;;;;8.65;3.72;;;;;;;5.68;100.00;102815.66;4911910;29;20040;-78
2022/01/22 11:57:20;;;;;;;7.82;3.85;;;;;;;5.60;100.00;102814.22;4960980;28;20339;-77
2022/01/22 11:59:46;;;;;;;9.90;3.90;;;;;;;5.55;100.00;102820.50;4975515;28;20093;-78
2022/01/22 12:02:14;;;;;;;7.65;3.53;;;;;;;5.56;100.00;102817.00;4978081;28;20034;-77
2022/01/22 12:04:39;;;;;;;6.43;3.38;;;;;;;5.61;100.00;102820.25;4960553;28;20034;-78
2022/01/22 12:07:06;;;;;;;5.90;3.60;;;;;;;5.55;100.00;102823.94;4958566;28;20242;-79
2022/01/22 12:09:36;;;;;;;6.20;3.08;;;;;;;5.59;100.00;102825.53;4977307;28;20027;-78
2022/01/22 12:15:14;;;;;;;7.25;3.80;;;;;;;5.59;100.00;102816.88;4975263;28;20023;-78
2022/01/22 12:17:47;;;;;;;10.00;5.22;;;;;;;5.60;100.00;102822.03;4978498;28;20030;-77
2022/01/22 12:23:02;;;;;;;13.38;6.10;;;;;;;5.65;100.00;102830.50;4974302;28;20046;-79
2022/01/22 12:25:28;;;;;;;14.02;6.78;;;;;;;5.60;100.00;102819.41;4977293;28;20043;-78
2022/01/22 12:27:54;;;;;;;12.75;7.05;;;;;;;5.61;100.00;102815.03;4964385;28;20458;-79
2022/01/22 12:30:48;;;;;;;12.00;6.13;;;;;;;5.71;100.00;102826.78;4961466;28;20042;-78
2022/01/22 12:33:29;;;;;;;17.77;5.88;;;;;;;5.72;100.00;102817.22;4955325;28;20066;-77
2022/01/22 12:36:01;;;;;;;7.63;4.60;;;;;;;5.79;100.00;102810.84;4958401;28;20031;-79
2022/01/22 12:38:51;;;;;;;9.70;3.75;;;;;;;5.74;100.00;102812.78;4960776;28;20043;-79
2022/01/22 12:44:28;;;;;;;5.88;3.85;;;;;;;5.75;100.00;102811.88;4973111;28;20110;-78
2022/01/22 12:46:59;;;;;;;8.80;3.63;;;;;;;5.79;100.00;102814.28;4986795;28;20034;-79
2022/01/22 12:49:27;;;;;;;10.85;4.18;;;;;;;5.78;100.00;102806.53;4974416;28;20035;-79
2022/01/22 12:52:15;;;;;;;11.10;4.68;;;;;;;5.79;100.00;102814.28;4970651;28;20503;-78
2022/01/22 12:54:46;;;;;;;9.43;5.15;;;;;;;5.82;100.00;102805.47;4987804;28;20085;-78
2022/01/22 12:57:14;;;;;;;12.45;5.28;;;;;;;5.75;100.00;102806.69;4942631;28;20046;-77
2022/01/22 13:00:03;;;;;;;10.82;5.20;;;;;;;5.78;100.00;102809.13;4973470;28;20673;-77
2022/01/22 13:02:41;;;;;;;14.13;4.80;;;;;;;5.67;100.00;102804.41;4974270;28;20129;-78
2022/01/22 13:05:08;;;;;;;8.23;4.95;;;;;;;5.75;100.00;102798.88;4961271;28;20035;-78
2022/01/22 13:08:01;;;;;;;13.57;5.30;;;;;;;5.74;100.00;102799.75;4937133;28;20039;-78
2022/01/22 13:10:48;;;;;;;13.93;5.85;;;;;;;5.74;100.00;102807.56;4976885;28;20065;-77
2022/01/22 13:13:17;;;;;;;10.65;5.95;;;;;;;5.68;100.00;102805.25;4943004;28;20047;-79